createdAt,value
2017-09-09T00:01:52.961Z,16.17
2017-09-09T00:04:20.326Z,17.67
2017-09-09T00:06:47.646Z,17.33
2017-09-09T00:09:15.017Z,25.63
2017-09-09T00:11:42.330Z,17.40
2017-09-09T00:14:09.648Z,17.00
2017-09-09T00:16:37.142Z,18.50
2017-09-09T00:19:04.489Z,14.27
2017-09-09T00:21:31.801Z,19.37
2017-09-09T00:23:59.155Z,17.17
2017-09-09T00:26:26.477Z,17.37
2017-09-09T00:28:53.858Z,15.40
2017-09-09T00:31:21.190Z,20.23
2017-09-09T00:33:48.509Z,20.20
2017-09-09T00:36:15.865Z,16.93
2017-09-09T00:38:43.185Z,12.17
2017-09-09T00:41:10.554Z,16.93
2017-09-09T00:43:37.865Z,18.53
2017-09-09T00:46:06.050Z,14.37
2017-09-09T00:48:33.398Z,15.80
2017-09-09T00:51:00.727Z,12.60
2017-09-09T00:53:28.079Z,17.47
2017-09-09T00:55:55.425Z,16.67
2017-09-09T00:58:22.725Z,21.50
2017-09-09T01:00:51.022Z,18.57
2017-09-09T01:03:18.345Z,18.37
2017-09-09T01:05:45.938Z,17.40
2017-09-09T01:08:13.232Z,15.90
2017-09-09T01:10:40.907Z,13.93
2017-09-09T01:13:08.208Z,13.30
2017-09-09T01:15:35.578Z,18.73
2017-09-09T01:18:04.087Z,16.50
2017-09-09T01:20:31.490Z,13.93
2017-09-09T01:22:58.788Z,16.63
2017-09-09T01:25:26.106Z,17.73
2017-09-09T01:27:53.434Z,14.17
2017-09-09T01:30:20.794Z,14.93
2017-09-09T01:32:48.123Z,18.93
2017-09-09T01:35:15.453Z,16.20
2017-09-09T01:37:42.757Z,20.30
2017-09-09T01:40:10.135Z,13.33
2017-09-09T01:42:37.564Z,16.07
2017-09-09T01:45:05.397Z,14.67
2017-09-09T01:47:32.737Z,21.40
2017-09-09T01:50:00.090Z,18.00
2017-09-09T01:52:27.431Z,21.27
2017-09-09T01:54:54.768Z,16.40
2017-09-09T01:57:22.102Z,13.60
2017-09-09T01:59:49.455Z,14.33
2017-09-09T02:02:16.777Z,16.80
2017-09-09T02:04:44.130Z,13.47
2017-09-09T02:07:11.477Z,17.20
2017-09-09T02:09:38.797Z,19.13
2017-09-09T02:12:06.156Z,16.53
2017-09-09T02:14:33.478Z,16.20
2017-09-09T02:17:00.841Z,13.37
2017-09-09T02:19:28.158Z,14.50
2017-09-09T02:21:55.493Z,15.20
2017-09-09T02:24:22.810Z,16.97
2017-09-09T02:26:50.161Z,14.03
2017-09-09T02:29:17.461Z,15.37
2017-09-09T02:31:44.830Z,18.00
2017-09-09T02:34:12.143Z,19.97
2017-09-09T02:36:39.482Z,19.87
2017-09-09T02:39:06.793Z,17.10
2017-09-09T02:41:34.118Z,16.23
2017-09-09T02:44:01.439Z,16.57
2017-09-09T02:46:28.757Z,18.03
2017-09-09T02:48:56.061Z,18.30
2017-09-09T02:51:23.413Z,20.07
2017-09-09T02:53:50.745Z,19.67
2017-09-09T02:56:18.069Z,14.60
2017-09-09T02:58:46.377Z,16.50
2017-09-09T03:01:13.709Z,15.93
2017-09-09T03:03:41.076Z,16.53
2017-09-09T03:06:08.413Z,19.53
2017-09-09T03:08:35.716Z,16.67
2017-09-09T03:11:03.078Z,18.77
2017-09-09T03:13:30.384Z,19.13
2017-09-09T03:15:57.709Z,17.60
2017-09-09T03:18:25.012Z,16.90
2017-09-09T03:20:52.331Z,12.43
2017-09-09T03:23:20.592Z,17.43
2017-09-09T03:25:48.028Z,16.60
2017-09-09T03:28:15.373Z,15.67
2017-09-09T03:30:42.694Z,14.57
2017-09-09T03:33:10.022Z,21.00
2017-09-09T03:35:38.344Z,15.70
2017-09-09T03:38:05.677Z,17.53
2017-09-09T03:40:33.922Z,17.00
2017-09-09T03:43:01.669Z,16.13
2017-09-09T03:45:29.011Z,17.90
2017-09-09T03:47:56.325Z,19.00
2017-09-09T03:50:23.630Z,22.40
2017-09-09T03:52:50.971Z,16.77
2017-09-09T03:55:18.314Z,22.63
2017-09-09T03:57:45.675Z,19.90
2017-09-09T04:00:12.998Z,15.83
2017-09-09T04:02:40.333Z,17.80
2017-09-09T04:05:07.670Z,19.40
2017-09-09T04:07:35.026Z,22.30
2017-09-09T04:10:02.343Z,20.47
2017-09-09T04:12:29.675Z,20.47
2017-09-09T04:14:56.982Z,18.10
2017-09-09T04:17:24.331Z,17.50
2017-09-09T04:19:51.631Z,20.53
2017-09-09T04:22:18.957Z,24.43
2017-09-09T04:24:46.297Z,26.27
2017-09-09T04:27:13.625Z,25.97
2017-09-09T04:29:41.387Z,28.13
2017-09-09T04:32:09.060Z,24.77
2017-09-09T04:34:36.378Z,23.70
2017-09-09T04:37:03.738Z,23.37
2017-09-09T04:39:31.066Z,24.37
2017-09-09T04:41:58.441Z,20.97
2017-09-09T04:44:25.749Z,21.50
2017-09-09T04:46:54.033Z,20.27
2017-09-09T04:49:21.342Z,21.10
2017-09-09T04:51:48.668Z,22.77
2017-09-09T04:54:16.954Z,23.77
2017-09-09T04:56:44.293Z,22.33
2017-09-09T04:59:11.654Z,17.63
2017-09-09T05:01:38.980Z,22.07
2017-09-09T05:04:06.446Z,22.03
2017-09-09T05:06:34.201Z,26.93
2017-09-09T05:09:01.862Z,26.27
2017-09-09T05:11:29.573Z,21.00
2017-09-09T05:13:57.836Z,22.70
2017-09-09T05:16:25.170Z,21.73
2017-09-09T05:18:53.518Z,19.50
2017-09-09T05:21:20.996Z,21.63
2017-09-09T05:23:48.385Z,20.90
2017-09-09T05:26:15.715Z,25.97
2017-09-09T05:28:43.038Z,22.73
2017-09-09T05:31:10.399Z,23.70
2017-09-09T05:33:37.731Z,22.40
2017-09-09T05:36:05.046Z,23.57
2017-09-09T05:38:32.396Z,19.97
2017-09-09T05:40:59.723Z,24.20
2017-09-09T05:43:27.070Z,20.47
2017-09-09T05:45:54.403Z,22.80
2017-09-09T05:48:21.726Z,20.07
2017-09-09T05:50:49.045Z,23.20
2017-09-09T05:53:17.382Z,22.50
2017-09-09T05:55:44.689Z,20.80
2017-09-09T05:58:12.067Z,24.10
2017-09-09T06:00:39.381Z,24.13
2017-09-09T06:03:06.856Z,20.47
2017-09-09T06:05:34.226Z,23.40
2017-09-09T06:08:01.549Z,19.53
2017-09-09T06:10:28.888Z,22.87
2017-09-09T06:12:56.240Z,19.57
2017-09-09T06:15:23.562Z,23.23
2017-09-09T06:17:51.064Z,18.40
2017-09-09T06:20:19.335Z,20.63
2017-09-09T06:22:46.690Z,18.43
2017-09-09T06:25:14.030Z,20.43
2017-09-09T06:27:41.340Z,19.27
2017-09-09T06:30:08.715Z,20.70
2017-09-09T06:32:37.976Z,25.17
2017-09-09T06:35:05.361Z,18.87
2017-09-09T06:37:33.734Z,15.90
2017-09-09T06:40:01.110Z,21.27
2017-09-09T06:42:28.428Z,17.17
2017-09-09T06:44:55.761Z,21.00
2017-09-09T06:47:23.067Z,16.50
2017-09-09T06:49:50.425Z,16.43
2017-09-09T06:52:17.749Z,15.17
2017-09-09T06:54:45.120Z,14.23
2017-09-09T06:57:12.464Z,19.83
2017-09-09T06:59:39.816Z,16.17
2017-09-09T07:02:07.121Z,15.70
2017-09-09T07:04:34.514Z,17.00
2017-09-09T07:07:01.846Z,19.30
2017-09-09T07:09:30.178Z,18.50
2017-09-09T07:11:57.536Z,14.60
2017-09-09T07:14:28.158Z,17.70
2017-09-09T07:16:55.462Z,17.80
2017-09-09T07:19:22.842Z,18.70
2017-09-09T07:21:50.194Z,18.80
2017-09-09T07:24:17.513Z,14.17
2017-09-09T07:26:44.833Z,16.07
2017-09-09T07:29:12.502Z,13.30
2017-09-09T07:31:39.809Z,15.20
2017-09-09T07:34:07.165Z,21.37
2017-09-09T07:36:34.473Z,17.30
2017-09-09T07:39:01.833Z,14.30
2017-09-09T07:41:29.166Z,21.13
2017-09-09T07:43:56.796Z,14.70
2017-09-09T07:46:24.144Z,17.20
2017-09-09T07:48:51.485Z,12.77
2017-09-09T07:51:18.848Z,12.47
2017-09-09T07:53:46.229Z,13.03
2017-09-09T07:56:13.545Z,16.17
2017-09-09T07:58:40.857Z,13.60
2017-09-09T08:01:08.201Z,16.90
2017-09-09T08:03:35.537Z,15.10
2017-09-09T08:06:02.913Z,12.70
2017-09-09T08:08:30.244Z,19.10
2017-09-09T08:10:58.602Z,12.30
2017-09-09T08:13:25.949Z,17.77
2017-09-09T08:15:53.277Z,13.83
2017-09-09T08:18:20.590Z,13.73
2017-09-09T08:20:47.914Z,15.47
2017-09-09T08:23:15.223Z,15.30
2017-09-09T08:25:42.553Z,14.87
2017-09-09T08:28:09.869Z,14.93
2017-09-09T08:30:37.241Z,12.23
2017-09-09T08:33:04.545Z,11.80
2017-09-09T08:35:31.905Z,16.10
2017-09-09T08:37:59.239Z,14.17
2017-09-09T08:40:26.565Z,12.00
2017-09-09T08:42:53.900Z,16.60
2017-09-09T08:45:21.230Z,10.67
2017-09-09T08:47:48.549Z,13.43
2017-09-09T08:50:15.862Z,11.67
2017-09-09T08:52:43.186Z,12.33
2017-09-09T08:55:10.540Z,12.57
2017-09-09T08:57:37.858Z,13.17
2017-09-09T09:00:05.253Z,13.43
2017-09-09T09:02:32.557Z,11.20
2017-09-09T09:04:59.900Z,11.10
2017-09-09T09:07:27.233Z,13.70
2017-09-09T09:09:54.609Z,12.60
2017-09-09T09:12:22.025Z,15.23
2017-09-09T09:14:49.375Z,11.60
2017-09-09T09:17:16.691Z,9.87
2017-09-09T09:19:44.002Z,9.60
2017-09-09T09:22:11.316Z,9.67
2017-09-09T09:24:38.646Z,14.73
2017-09-09T09:27:05.961Z,8.80
2017-09-09T09:29:33.282Z,7.90
2017-09-09T09:32:00.612Z,11.50
2017-09-09T09:34:27.954Z,13.40
2017-09-09T09:36:55.269Z,11.20
2017-09-09T09:39:22.582Z,10.00
2017-09-09T09:41:49.926Z,12.27
2017-09-09T09:44:17.246Z,12.03
2017-09-09T09:46:44.598Z,11.90
2017-09-09T09:49:11.926Z,9.20
2017-09-09T09:51:40.219Z,13.57
2017-09-09T09:54:07.544Z,12.90
2017-09-09T09:56:34.987Z,9.70
2017-09-09T09:59:02.402Z,9.87
2017-09-09T10:01:29.725Z,12.73
2017-09-09T10:03:57.301Z,11.50
2017-09-09T10:06:24.719Z,11.17
2017-09-09T10:08:52.093Z,8.00
2017-09-09T10:11:19.438Z,9.70
2017-09-09T10:13:46.789Z,11.20
2017-09-09T10:16:14.164Z,7.70
2017-09-09T10:18:41.473Z,12.57
2017-09-09T10:21:08.801Z,14.67
2017-09-09T10:23:36.133Z,13.10
2017-09-09T10:26:04.408Z,11.63
2017-09-09T10:28:31.738Z,9.87
2017-09-09T10:30:59.095Z,12.60
2017-09-09T10:33:26.517Z,12.37
2017-09-09T10:35:53.821Z,10.50
2017-09-09T10:38:21.129Z,10.57
2017-09-09T10:40:48.444Z,9.73
2017-09-09T10:43:15.787Z,10.83
2017-09-09T10:45:43.237Z,12.23
2017-09-09T10:48:11.589Z,9.90
2017-09-09T10:50:38.907Z,8.93
2017-09-09T10:53:06.196Z,9.80
2017-09-09T10:55:33.544Z,11.17
2017-09-09T10:58:00.849Z,9.10
2017-09-09T11:00:28.144Z,11.87
2017-09-09T11:02:55.473Z,12.73
2017-09-09T11:05:22.789Z,12.43
2017-09-09T11:07:50.131Z,16.03
2017-09-09T11:10:17.461Z,11.17
2017-09-09T11:12:44.842Z,16.63
2017-09-09T11:15:12.154Z,12.57
2017-09-09T11:17:39.525Z,11.27
2017-09-09T11:20:07.131Z,11.10
2017-09-09T11:22:34.487Z,14.13
2017-09-09T11:25:01.806Z,17.17
2017-09-09T11:27:29.176Z,12.43
2017-09-09T11:29:56.485Z,13.70
2017-09-09T11:32:23.970Z,12.30
2017-09-09T11:34:51.289Z,14.87
2017-09-09T11:37:18.696Z,12.40
2017-09-09T11:39:46.185Z,15.90
2017-09-09T11:42:13.532Z,19.60
2017-09-09T11:44:42.182Z,11.17
2017-09-09T11:47:09.549Z,12.80
2017-09-09T11:49:36.853Z,17.77
2017-09-09T11:52:04.250Z,15.07
2017-09-09T11:54:31.557Z,11.90
2017-09-09T11:56:58.931Z,16.40
2017-09-09T11:59:26.280Z,12.33
2017-09-09T12:01:53.585Z,10.50
2017-09-09T12:04:20.930Z,14.07
2017-09-09T12:06:48.245Z,12.90
2017-09-09T12:09:15.613Z,13.00
2017-09-09T12:11:42.942Z,14.00
2017-09-09T12:14:10.309Z,15.67
2017-09-09T12:16:37.629Z,14.33
2017-09-09T12:19:04.990Z,9.37
2017-09-09T12:21:32.302Z,14.13
2017-09-09T12:23:59.687Z,9.33
2017-09-09T12:26:27.041Z,14.80
2017-09-09T12:28:54.376Z,16.50
2017-09-09T12:31:21.702Z,12.60
2017-09-09T12:33:49.032Z,12.20
2017-09-09T12:36:16.409Z,10.93
2017-09-09T12:38:43.917Z,14.37
2017-09-09T12:41:11.236Z,10.37
2017-09-09T12:43:38.586Z,11.27
2017-09-09T12:46:05.921Z,12.20
2017-09-09T12:48:33.280Z,16.73
2017-09-09T12:51:00.592Z,10.27
2017-09-09T12:53:27.934Z,14.33
2017-09-09T12:55:55.305Z,10.33
2017-09-09T12:58:22.938Z,13.93
2017-09-09T13:00:50.298Z,12.50
2017-09-09T13:03:17.626Z,11.60
2017-09-09T13:05:44.965Z,13.70
2017-09-09T13:08:12.312Z,16.63
2017-09-09T13:10:39.645Z,13.40
2017-09-09T13:13:06.973Z,12.13
2017-09-09T13:15:34.370Z,13.00
2017-09-09T13:18:01.667Z,11.83
2017-09-09T13:20:29.015Z,16.40
2017-09-09T13:22:56.625Z,12.20
2017-09-09T13:25:23.955Z,13.60
2017-09-09T13:27:51.261Z,11.97
2017-09-09T13:30:18.585Z,12.73
2017-09-09T13:32:45.907Z,12.50
2017-09-09T13:35:13.283Z,12.90
2017-09-09T13:37:40.590Z,10.20
2017-09-09T13:40:08.007Z,15.13
2017-09-09T13:42:35.321Z,10.23
2017-09-09T13:45:02.643Z,13.77
2017-09-09T13:47:29.965Z,10.90
2017-09-09T13:49:57.642Z,11.43
2017-09-09T13:52:24.955Z,10.13
2017-09-09T13:54:52.302Z,11.73
2017-09-09T13:57:19.653Z,12.50
2017-09-09T13:59:46.973Z,14.70
2017-09-09T14:02:14.354Z,9.37
2017-09-09T14:04:41.653Z,12.27
2017-09-09T14:07:09.065Z,10.90
2017-09-09T14:09:36.429Z,12.53
2017-09-09T14:12:03.800Z,8.30
2017-09-09T14:14:31.102Z,10.23
2017-09-09T14:16:58.425Z,11.13
2017-09-09T14:19:25.745Z,13.20
2017-09-09T14:21:53.077Z,11.10
2017-09-09T14:24:20.411Z,10.73
2017-09-09T14:26:47.780Z,12.10
2017-09-09T14:29:15.077Z,9.73
2017-09-09T14:31:42.459Z,8.40
2017-09-09T14:34:09.758Z,13.63
2017-09-09T14:36:37.911Z,9.43
2017-09-09T14:39:05.282Z,10.73
2017-09-09T14:41:32.623Z,10.57
2017-09-09T14:43:59.937Z,11.20
2017-09-09T14:46:28.203Z,9.63
2017-09-09T14:48:55.542Z,9.23
2017-09-09T14:51:23.074Z,11.07
2017-09-09T14:53:50.390Z,8.67
2017-09-09T14:56:18.669Z,9.90
2017-09-09T14:58:45.984Z,13.17
2017-09-09T15:01:13.286Z,7.60
2017-09-09T15:03:40.594Z,8.27
2017-09-09T15:06:07.901Z,14.53
2017-09-09T15:08:35.232Z,10.83
2017-09-09T15:11:02.536Z,7.90
2017-09-09T15:13:29.873Z,9.57
2017-09-09T15:15:57.720Z,11.43
2017-09-09T15:18:25.036Z,8.03
2017-09-09T15:20:52.344Z,7.07
2017-09-09T15:23:19.653Z,7.13
2017-09-09T15:25:46.996Z,7.40
2017-09-09T15:28:14.344Z,10.33
2017-09-09T15:30:41.669Z,6.93
2017-09-09T15:33:08.999Z,5.97
2017-09-09T15:35:36.339Z,7.30
2017-09-09T15:38:03.728Z,6.00
2017-09-09T15:40:31.057Z,5.43
2017-09-09T15:42:58.674Z,6.07
2017-09-09T15:45:26.026Z,5.80
2017-09-09T15:47:53.342Z,5.73
2017-09-09T15:50:20.673Z,5.77
2017-09-09T15:52:47.969Z,5.60
2017-09-09T15:55:15.284Z,7.13
2017-09-09T15:57:42.584Z,6.30
2017-09-09T16:00:09.884Z,7.00
2017-09-09T16:02:38.133Z,5.70
2017-09-09T16:05:05.454Z,5.43
2017-09-09T16:07:32.759Z,4.27
2017-09-09T16:10:00.058Z,5.13
2017-09-09T16:12:27.397Z,5.23
2017-09-09T16:14:54.721Z,21.30
2017-09-09T16:17:22.078Z,5.20
2017-09-09T16:19:49.407Z,9.20
2017-09-09T16:22:16.777Z,7.63
2017-09-09T16:24:44.087Z,4.03
2017-09-09T16:27:11.442Z,5.03
2017-09-09T16:29:38.786Z,6.90
2017-09-09T16:32:06.148Z,6.63
2017-09-09T16:34:33.436Z,6.60
2017-09-09T16:37:00.760Z,8.23
2017-09-09T16:39:28.072Z,5.63
2017-09-09T16:41:55.445Z,5.00
2017-09-09T16:44:23.046Z,5.50
2017-09-09T16:46:50.380Z,7.23
2017-09-09T16:49:17.712Z,6.13
2017-09-09T16:51:45.053Z,4.97
2017-09-09T16:54:12.398Z,6.53
2017-09-09T16:56:39.709Z,4.97
2017-09-09T16:59:07.005Z,7.43
2017-09-09T17:01:34.350Z,5.30
2017-09-09T17:04:01.649Z,6.50
2017-09-09T17:06:28.948Z,6.90
2017-09-09T17:08:56.281Z,5.07
2017-09-09T17:11:23.576Z,7.00
2017-09-09T17:13:50.929Z,7.00
2017-09-09T17:16:18.248Z,5.90
2017-09-09T17:18:45.561Z,7.60
2017-09-09T17:21:12.859Z,10.30
2017-09-09T17:23:40.205Z,7.90
2017-09-09T17:26:07.505Z,7.40
2017-09-09T17:28:34.817Z,7.47
2017-09-09T17:31:02.117Z,7.20
2017-09-09T17:33:29.452Z,9.23
2017-09-09T17:35:56.781Z,7.37
2017-09-09T17:38:24.117Z,5.77
2017-09-09T17:40:51.399Z,6.93
2017-09-09T17:43:18.724Z,9.50
2017-09-09T17:45:46.038Z,6.97
2017-09-09T17:48:13.358Z,9.40
2017-09-09T17:50:40.652Z,8.27
2017-09-09T17:53:07.958Z,10.07
2017-09-09T17:55:35.562Z,12.53
2017-09-09T17:58:02.849Z,8.80
2017-09-09T18:00:30.157Z,9.37
2017-09-09T18:02:57.456Z,10.90
2017-09-09T18:05:25.716Z,8.87
2017-09-09T18:07:53.370Z,6.70
2017-09-09T18:10:20.806Z,6.70
2017-09-09T18:12:48.118Z,7.73
2017-09-09T18:15:15.445Z,13.00
2017-09-09T18:17:42.765Z,33.60
2017-09-09T18:20:12.481Z,17.00
2017-09-09T18:22:39.789Z,14.50
2017-09-09T18:25:07.117Z,30.63
2017-09-09T18:27:34.438Z,10.80
2017-09-09T18:30:01.788Z,7.33
2017-09-09T18:32:29.101Z,10.70
2017-09-09T18:34:56.431Z,9.37
2017-09-09T18:37:23.748Z,7.27
2017-09-09T18:39:51.057Z,8.40
2017-09-09T18:42:19.305Z,9.10
2017-09-09T18:44:46.641Z,6.80
2017-09-09T18:47:13.940Z,9.00
2017-09-09T18:49:41.259Z,10.67
2017-09-09T18:52:08.562Z,7.13
2017-09-09T18:54:35.932Z,9.53
2017-09-09T18:57:03.240Z,16.40
2017-09-09T18:59:30.593Z,12.07
2017-09-09T19:01:58.053Z,7.63
2017-09-09T19:04:25.371Z,6.83
2017-09-09T19:06:52.704Z,10.03
2017-09-09T19:09:21.096Z,7.93
2017-09-09T19:11:48.488Z,7.63
2017-09-09T19:14:16.000Z,5.07
2017-09-09T19:16:43.346Z,11.37
2017-09-09T19:19:10.740Z,11.47
2017-09-09T19:21:38.108Z,7.20
2017-09-09T19:24:05.453Z,11.73
2017-09-09T19:26:32.793Z,12.63
2017-09-09T19:29:00.235Z,10.30
2017-09-09T19:31:27.675Z,11.37
2017-09-09T19:33:55.074Z,12.87
2017-09-09T19:36:22.393Z,9.70
2017-09-09T19:38:49.710Z,6.87
2017-09-09T19:41:17.043Z,9.20
2017-09-09T19:43:44.379Z,10.40
2017-09-09T19:46:12.044Z,6.90
2017-09-09T19:48:39.342Z,14.20
2017-09-09T19:51:06.670Z,7.37
2017-09-09T19:53:34.154Z,6.40
2017-09-09T19:56:01.537Z,6.13
2017-09-09T19:58:28.849Z,6.73
2017-09-09T20:00:56.302Z,7.87
2017-09-09T20:03:24.650Z,7.03
2017-09-09T20:05:52.289Z,8.87
2017-09-09T20:08:19.589Z,8.50
2017-09-09T20:10:47.017Z,8.77
2017-09-09T20:13:14.328Z,6.33
2017-09-09T20:15:41.671Z,7.40
2017-09-09T20:18:08.973Z,7.37
2017-09-09T20:20:36.289Z,6.30
2017-09-09T20:23:03.592Z,6.17
2017-09-09T20:25:30.976Z,5.90
2017-09-09T20:27:58.285Z,9.10
2017-09-09T20:30:25.613Z,11.60
2017-09-09T20:32:52.912Z,8.03
2017-09-09T20:35:20.269Z,8.13
2017-09-09T20:37:47.568Z,9.00
2017-09-09T20:40:14.892Z,6.03
2017-09-09T20:42:42.182Z,7.87
2017-09-09T20:45:09.537Z,7.80
2017-09-09T20:47:36.903Z,6.87
2017-09-09T20:50:04.326Z,9.13
2017-09-09T20:52:31.684Z,17.30
2017-09-09T20:54:58.990Z,5.83
2017-09-09T20:57:26.355Z,5.70
2017-09-09T20:59:53.721Z,8.33
2017-09-09T21:02:21.060Z,8.80
2017-09-09T21:04:48.372Z,7.70
2017-09-09T21:07:15.920Z,8.17
2017-09-09T21:09:43.265Z,6.63
2017-09-09T21:12:10.626Z,9.33
2017-09-09T21:14:38.239Z,9.83
2017-09-09T21:17:05.572Z,7.77
2017-09-09T21:19:32.871Z,8.10
2017-09-09T21:22:00.209Z,6.90
2017-09-09T21:24:27.569Z,9.70
2017-09-09T21:26:55.201Z,6.10
2017-09-09T21:29:22.536Z,5.50
2017-09-09T21:31:49.973Z,7.07
2017-09-09T21:34:17.335Z,6.93
2017-09-09T21:36:44.725Z,9.03
2017-09-09T21:39:12.068Z,8.70
2017-09-09T21:41:39.411Z,5.47
2017-09-09T21:44:07.975Z,6.40
2017-09-09T21:46:35.294Z,6.87
2017-09-09T21:49:02.634Z,7.60
2017-09-09T21:51:29.941Z,7.97
2017-09-09T21:53:57.357Z,7.83
2017-09-09T21:56:24.704Z,5.93
2017-09-09T21:58:52.430Z,5.90
2017-09-09T22:01:20.705Z,8.10
2017-09-09T22:03:48.080Z,8.33
2017-09-09T22:06:15.437Z,8.50
2017-09-09T22:08:42.732Z,4.97
2017-09-09T22:11:10.088Z,7.03
2017-09-09T22:13:37.439Z,7.10
2017-09-09T22:16:04.803Z,6.30
2017-09-09T22:18:32.101Z,6.87
2017-09-09T22:20:59.396Z,10.03
2017-09-09T22:23:26.721Z,5.27
2017-09-09T22:25:54.020Z,5.43
2017-09-09T22:28:22.276Z,6.47
2017-09-09T22:30:50.519Z,6.30
2017-09-09T22:33:17.885Z,10.03
2017-09-09T22:35:45.176Z,6.60
2017-09-09T22:38:12.485Z,7.70
2017-09-09T22:40:39.786Z,8.37
2017-09-09T22:43:07.087Z,7.40
2017-09-09T22:45:34.392Z,7.33
2017-09-09T22:48:01.733Z,5.93
2017-09-09T22:50:29.049Z,5.20
2017-09-09T22:52:56.368Z,7.77
2017-09-09T22:55:23.687Z,7.40
2017-09-09T22:57:51.916Z,6.87
2017-09-09T23:00:19.244Z,6.23
2017-09-09T23:02:46.566Z,6.80
2017-09-09T23:05:13.861Z,5.93
2017-09-09T23:07:41.170Z,6.37
2017-09-09T23:10:08.500Z,7.60
2017-09-09T23:12:35.814Z,9.13
2017-09-09T23:15:03.128Z,7.20
2017-09-09T23:17:30.440Z,6.40
2017-09-09T23:19:57.752Z,6.20
2017-09-09T23:22:25.068Z,6.20
2017-09-09T23:24:52.555Z,7.10
2017-09-09T23:27:19.864Z,7.27
2017-09-09T23:29:47.160Z,6.83
2017-09-09T23:32:14.480Z,5.93
2017-09-09T23:34:41.801Z,6.67
2017-09-09T23:37:09.129Z,6.43
2017-09-09T23:39:36.626Z,10.07
2017-09-09T23:42:03.928Z,6.77
2017-09-09T23:44:31.245Z,7.73
2017-09-09T23:46:58.544Z,10.90
2017-09-09T23:49:25.861Z,7.50
2017-09-09T23:51:53.198Z,7.30
2017-09-09T23:54:20.504Z,5.03
2017-09-09T23:56:47.797Z,6.67
2017-09-09T23:59:15.134Z,6.93
